sensor_id;sensor_type;location;lat;lon;timestamp;pressure;altitude;pressure_sealevel;temperature;humidity
62789;BME280;66401;42.016;21.454;2023-07-28T00:02:20;98325.03;;;17.93;56.48
62789;BME280;66401;42.016;21.454;2023-07-28T00:04:45;98321.34;;;17.94;56.28
62789;BME280;66401;42.016;21.454;2023-07-28T00:07:11;98321.44;;;17.99;56.66
62789;BME280;66401;42.016;21.454;2023-07-28T00:09:36;98324.09;;;17.99;56.49
62789;BME280;66401;42.016;21.454;2023-07-28T00:12:02;98321.41;;;17.83;56.90
62789;BME280;66401;42.016;21.454;2023-07-28T00:14:28;98331.09;;;17.77;56.71
62789;BME280;66401;42.016;21.454;2023-07-28T00:16:54;98317.81;;;17.72;57.45
62789;BME280;66401;42.016;21.454;2023-07-28T00:19:20;98305.84;;;17.81;57.25
62789;BME280;66401;42.016;21.454;2023-07-28T00:21:50;98311.03;;;17.76;56.78
62789;BME280;66401;42.016;21.454;2023-07-28T00:24:16;98315.41;;;17.70;56.84
62789;BME280;66401;42.016;21.454;2023-07-28T00:26:42;98320.16;;;17.57;56.81
62789;BME280;66401;42.016;21.454;2023-07-28T00:29:07;98318.91;;;17.48;57.33
62789;BME280;66401;42.016;21.454;2023-07-28T00:31:33;98314.81;;;17.40;57.01
62789;BME280;66401;42.016;21.454;2023-07-28T00:33:59;98324.06;;;17.42;57.44
62789;BME280;66401;42.016;21.454;2023-07-28T00:36:25;98319.88;;;17.30;58.01
62789;BME280;66401;42.016;21.454;2023-07-28T00:38:51;98302.50;;;17.17;58.09
62789;BME280;66401;42.016;21.454;2023-07-28T00:41:16;98320.53;;;17.37;57.63
62789;BME280;66401;42.016;21.454;2023-07-28T00:43:42;98303.75;;;17.26;57.85
62789;BME280;66401;42.016;21.454;2023-07-28T00:46:08;98318.13;;;17.35;58.40
62789;BME280;66401;42.016;21.454;2023-07-28T00:48:34;98317.22;;;17.41;57.61
62789;BME280;66401;42.016;21.454;2023-07-28T00:51:00;98313.53;;;17.42;57.95
62789;BME280;66401;42.016;21.454;2023-07-28T00:53:26;98317.22;;;17.41;58.17
62789;BME280;66401;42.016;21.454;2023-07-28T00:55:51;98309.78;;;17.38;58.35
62789;BME280;66401;42.016;21.454;2023-07-28T00:58:18;98295.41;;;17.29;58.69
62789;BME280;66401;42.016;21.454;2023-07-28T01:00:44;98301.78;;;17.33;58.50
62789;BME280;66401;42.016;21.454;2023-07-28T01:03:09;98309.00;;;17.26;58.62
62789;BME280;66401;42.016;21.454;2023-07-28T01:06:05;98308.41;;;16.96;58.83
62789;BME280;66401;42.016;21.454;2023-07-28T01:09:12;98312.75;;;17.02;59.93
62789;BME280;66401;42.016;21.454;2023-07-28T01:12:01;98296.47;;;17.05;59.48
62789;BME280;66401;42.016;21.454;2023-07-28T01:14:32;98301.81;;;17.22;59.00
62789;BME280;66401;42.016;21.454;2023-07-28T01:16:58;98305.50;;;17.21;58.88
62789;BME280;66401;42.016;21.454;2023-07-28T01:19:23;98295.66;;;17.16;59.13
62789;BME280;66401;42.016;21.454;2023-07-28T01:21:57;98293.81;;;17.16;58.31
62789;BME280;66401;42.016;21.454;2023-07-28T01:24:41;98304.69;;;17.20;58.66
62789;BME280;66401;42.016;21.454;2023-07-28T01:27:08;98311.06;;;17.24;57.79
62789;BME280;66401;42.016;21.454;2023-07-28T01:29:34;98313.16;;;17.22;57.91
62789;BME280;66401;42.016;21.454;2023-07-28T01:32:00;98308.03;;;17.04;57.92
62789;BME280;66401;42.016;21.454;2023-07-28T01:34:26;98300.84;;;16.87;58.65
62789;BME280;66401;42.016;21.454;2023-07-28T01:36:51;98279.34;;;16.67;59.26
62789;BME280;66401;42.016;21.454;2023-07-28T01:39:17;98296.97;;;16.78;58.51
62789;BME280;66401;42.016;21.454;2023-07-28T01:41:42;98296.53;;;16.81;59.39
62789;BME280;66401;42.016;21.454;2023-07-28T01:44:10;98303.28;;;16.77;59.18
62789;BME280;66401;42.016;21.454;2023-07-28T01:46:36;98302.38;;;16.72;59.83
62789;BME280;66401;42.016;21.454;2023-07-28T01:49:01;98310.13;;;16.78;58.88
62789;BME280;66401;42.016;21.454;2023-07-28T01:51:27;98307.34;;;16.50;60.18
62789;BME280;66401;42.016;21.454;2023-07-28T01:53:52;98312.84;;;16.48;60.69
62789;BME280;66401;42.016;21.454;2023-07-28T01:56:18;98311.63;;;16.51;61.04
62789;BME280;66401;42.016;21.454;2023-07-28T01:58:43;98306.78;;;16.48;60.82
62789;BME280;66401;42.016;21.454;2023-07-28T02:01:09;98308.84;;;16.46;60.36
62789;BME280;66401;42.016;21.454;2023-07-28T02:03:34;98321.06;;;16.40;60.67
62789;BME280;66401;42.016;21.454;2023-07-28T02:06:00;98324.28;;;16.66;61.22
62789;BME280;66401;42.016;21.454;2023-07-28T02:08:26;98319.72;;;16.49;61.53
62789;BME280;66401;42.016;21.454;2023-07-28T02:10:53;98317.97;;;16.20;62.21
62789;BME280;66401;42.016;21.454;2023-07-28T02:13:18;98316.13;;;16.09;63.04
62789;BME280;66401;42.016;21.454;2023-07-28T02:15:44;98326.81;;;15.84;63.52
62789;BME280;66401;42.016;21.454;2023-07-28T02:18:09;98324.19;;;15.84;62.76
62789;BME280;66401;42.016;21.454;2023-07-28T02:20:35;98320.66;;;15.90;62.33
62789;BME280;66401;42.016;21.454;2023-07-28T02:23:01;98328.09;;;15.93;62.45
62789;BME280;66401;42.016;21.454;2023-07-28T02:25:27;98316.88;;;15.86;63.08
62789;BME280;66401;42.016;21.454;2023-07-28T02:27:52;98321.44;;;15.90;62.53
62789;BME280;66401;42.016;21.454;2023-07-28T02:30:17;98322.88;;;16.16;62.01
62789;BME280;66401;42.016;21.454;2023-07-28T02:32:43;98312.22;;;16.11;62.69
62789;BME280;66401;42.016;21.454;2023-07-28T02:35:09;98307.91;;;16.05;62.49
62789;BME280;66401;42.016;21.454;2023-07-28T02:37:35;98328.13;;;16.05;62.46
62789;BME280;66401;42.016;21.454;2023-07-28T02:40:01;98320.00;;;16.06;62.50
62789;BME280;66401;42.016;21.454;2023-07-28T02:42:26;98327.81;;;16.24;61.40
62789;BME280;66401;42.016;21.454;2023-07-28T02:44:52;98325.19;;;16.24;61.84
62789;BME280;66401;42.016;21.454;2023-07-28T02:47:17;98305.53;;;16.27;60.92
62789;BME280;66401;42.016;21.454;2023-07-28T02:49:43;98322.22;;;16.33;61.58
62789;BME280;66401;42.016;21.454;2023-07-28T02:52:09;98326.00;;;16.37;60.89
62789;BME280;66401;42.016;21.454;2023-07-28T02:54:34;98321.31;;;16.39;61.48
62789;BME280;66401;42.016;21.454;2023-07-28T02:57:00;98320.50;;;16.38;60.94
62789;BME280;66401;42.016;21.454;2023-07-28T02:59:25;98311.47;;;16.34;61.28
62789;BME280;66401;42.016;21.454;2023-07-28T03:01:51;98330.13;;;16.33;61.18
62789;BME280;66401;42.016;21.454;2023-07-28T03:04:18;98318.75;;;16.20;60.83
62789;BME280;66401;42.016;21.454;2023-07-28T03:06:45;98327.88;;;16.06;61.74
62789;BME280;66401;42.016;21.454;2023-07-28T03:09:11;98341.28;;;16.16;61.69
62789;BME280;66401;42.016;21.454;2023-07-28T03:11:36;98344.94;;;16.15;60.34
62789;BME280;66401;42.016;21.454;2023-07-28T03:14:02;98343.09;;;16.04;62.18
62789;BME280;66401;42.016;21.454;2023-07-28T03:16:27;98357.25;;;16.03;60.96
62789;BME280;66401;42.016;21.454;2023-07-28T03:18:53;98331.03;;;15.85;62.57
62789;BME280;66401;42.016;21.454;2023-07-28T03:21:18;98355.97;;;15.94;61.98
62789;BME280;66401;42.016;21.454;2023-07-28T03:23:44;98358.69;;;15.87;62.51
62789;BME280;66401;42.016;21.454;2023-07-28T03:26:09;98361.09;;;16.00;61.98
62789;BME280;66401;42.016;21.454;2023-07-28T03:28:35;98367.63;;;15.98;62.68
62789;BME280;66401;42.016;21.454;2023-07-28T03:31:01;98365.34;;;15.71;63.06
62789;BME280;66401;42.016;21.454;2023-07-28T03:33:26;98371.75;;;15.76;64.05
62789;BME280;66401;42.016;21.454;2023-07-28T03:35:52;98360.41;;;15.63;63.68
62789;BME280;66401;42.016;21.454;2023-07-28T03:38:17;98362.28;;;15.56;64.48
62789;BME280;66401;42.016;21.454;2023-07-28T03:40:44;98363.50;;;15.72;63.68
62789;BME280;66401;42.016;21.454;2023-07-28T03:43:10;98367.75;;;15.73;63.84
62789;BME280;66401;42.016;21.454;2023-07-28T03:45:35;98369.09;;;15.64;64.90
62789;BME280;66401;42.016;21.454;2023-07-28T03:48:01;98370.81;;;15.52;64.47
62789;BME280;66401;42.016;21.454;2023-07-28T03:50:27;98342.63;;;15.10;65.49
62789;BME280;66401;42.016;21.454;2023-07-28T03:52:53;98385.84;;;15.44;65.92
62789;BME280;66401;42.016;21.454;2023-07-28T03:55:20;98384.88;;;15.57;66.00
62789;BME280;66401;42.016;21.454;2023-07-28T03:57:45;98382.50;;;15.56;64.97
62789;BME280;66401;42.016;21.454;2023-07-28T04:00:11;98378.41;;;15.23;66.10
62789;BME280;66401;42.016;21.454;2023-07-28T04:02:36;98387.75;;;15.37;65.17
62789;BME280;66401;42.016;21.454;2023-07-28T04:05:02;98373.09;;;15.66;63.98
62789;BME280;66401;42.016;21.454;2023-07-28T04:07:27;98377.31;;;15.49;64.50
62789;BME280;66401;42.016;21.454;2023-07-28T04:09:53;98384.38;;;15.49;65.13
62789;BME280;66401;42.016;21.454;2023-07-28T04:12:18;98400.13;;;15.30;65.23
62789;BME280;66401;42.016;21.454;2023-07-28T04:14:51;98389.56;;;15.37;65.50
62789;BME280;66401;42.016;21.454;2023-07-28T04:17:16;98386.50;;;15.58;64.00
62789;BME280;66401;42.016;21.454;2023-07-28T04:19:42;98393.56;;;15.76;64.10
62789;BME280;66401;42.016;21.454;2023-07-28T04:22:07;98400.00;;;15.92;63.33
62789;BME280;66401;42.016;21.454;2023-07-28T04:24:33;98395.50;;;16.11;62.20
62789;BME280;66401;42.016;21.454;2023-07-28T04:26:58;98403.00;;;16.25;61.64
62789;BME280;66401;42.016;21.454;2023-07-28T04:29:24;98402.00;;;16.38;61.41
62789;BME280;66401;42.016;21.454;2023-07-28T04:31:49;98404.63;;;16.50;61.24
62789;BME280;66401;42.016;21.454;2023-07-28T04:34:15;98402.13;;;16.31;61.44
62789;BME280;66401;42.016;21.454;2023-07-28T04:36:40;98401.94;;;15.85;62.62
62789;BME280;66401;42.016;21.454;2023-07-28T04:39:06;98398.53;;;15.48;63.72
62789;BME280;66401;42.016;21.454;2023-07-28T04:41:31;98399.56;;;15.83;63.62
62789;BME280;66401;42.016;21.454;2023-07-28T04:43:56;98391.81;;;15.70;62.86
62789;BME280;66401;42.016;21.454;2023-07-28T04:46:22;98395.00;;;15.90;63.29
62789;BME280;66401;42.016;21.454;2023-07-28T04:48:48;98389.47;;;16.10;63.35
62789;BME280;66401;42.016;21.454;2023-07-28T04:51:13;98390.53;;;15.91;63.71
62789;BME280;66401;42.016;21.454;2023-07-28T04:53:39;98392.16;;;16.22;62.55
62789;BME280;66401;42.016;21.454;2023-07-28T04:56:04;98398.44;;;16.33;62.13
62789;BME280;66401;42.016;21.454;2023-07-28T04:58:30;98395.44;;;16.17;62.41
62789;BME280;66401;42.016;21.454;2023-07-28T05:00:55;98397.66;;;16.44;62.06
62789;BME280;66401;42.016;21.454;2023-07-28T05:03:21;98398.44;;;16.33;62.86
62789;BME280;66401;42.016;21.454;2023-07-28T05:05:46;98383.16;;;16.53;61.67
62789;BME280;66401;42.016;21.454;2023-07-28T05:08:12;98401.19;;;16.79;60.76
62789;BME280;66401;42.016;21.454;2023-07-28T05:10:37;98409.97;;;16.97;60.29
62789;BME280;66401;42.016;21.454;2023-07-28T05:13:03;98409.53;;;17.00;60.70
62789;BME280;66401;42.016;21.454;2023-07-28T05:15:31;98397.41;;;16.99;60.79
62789;BME280;66401;42.016;21.454;2023-07-28T05:17:56;98400.03;;;16.87;60.58
62789;BME280;66401;42.016;21.454;2023-07-28T05:20:22;98389.03;;;16.78;61.26
62789;BME280;66401;42.016;21.454;2023-07-28T05:22:47;98390.75;;;16.84;60.10
62789;BME280;66401;42.016;21.454;2023-07-28T05:25:13;98392.38;;;17.09;60.41
62789;BME280;66401;42.016;21.454;2023-07-28T05:27:39;98387.09;;;17.09;60.11
62789;BME280;66401;42.016;21.454;2023-07-28T05:30:06;98386.16;;;17.15;59.61
62789;BME280;66401;42.016;21.454;2023-07-28T05:32:31;98390.53;;;16.98;59.70
62789;BME280;66401;42.016;21.454;2023-07-28T05:34:57;98380.31;;;17.25;60.70
62789;BME280;66401;42.016;21.454;2023-07-28T05:37:23;98381.72;;;17.56;59.16
62789;BME280;66401;42.016;21.454;2023-07-28T05:39:49;98378.81;;;17.81;57.67
62789;BME280;66401;42.016;21.454;2023-07-28T05:42:14;98370.06;;;17.92;57.36
62789;BME280;66401;42.016;21.454;2023-07-28T05:44:40;98377.44;;;18.07;57.67
62789;BME280;66401;42.016;21.454;2023-07-28T05:47:05;98376.16;;;18.09;57.78
62789;BME280;66401;42.016;21.454;2023-07-28T05:49:31;98379.91;;;18.13;57.89
62789;BME280;66401;42.016;21.454;2023-07-28T05:51:57;98384.50;;;18.18;57.98
62789;BME280;66401;42.016;21.454;2023-07-28T05:54:23;98375.34;;;17.92;57.94
62789;BME280;66401;42.016;21.454;2023-07-28T05:56:48;98384.56;;;18.06;57.52
62789;BME280;66401;42.016;21.454;2023-07-28T05:59:14;98384.84;;;18.38;56.08
62789;BME280;66401;42.016;21.454;2023-07-28T06:01:39;98372.69;;;18.54;56.04
62789;BME280;66401;42.016;21.454;2023-07-28T06:04:05;98402.34;;;18.44;55.75
62789;BME280;66401;42.016;21.454;2023-07-28T06:06:30;98396.03;;;18.79;54.58
62789;BME280;66401;42.016;21.454;2023-07-28T06:08:56;98398.91;;;18.94;54.96
62789;BME280;66401;42.016;21.454;2023-07-28T06:11:21;98392.03;;;18.93;54.51
62789;BME280;66401;42.016;21.454;2023-07-28T06:13:47;98407.50;;;18.68;54.26
62789;BME280;66401;42.016;21.454;2023-07-28T06:16:16;98398.69;;;18.79;54.79
62789;BME280;66401;42.016;21.454;2023-07-28T06:18:42;98403.94;;;18.45;54.67
62789;BME280;66401;42.016;21.454;2023-07-28T06:21:07;98395.72;;;18.92;54.03
62789;BME280;66401;42.016;21.454;2023-07-28T06:23:33;98397.47;;;19.03;53.45
62789;BME280;66401;42.016;21.454;2023-07-28T06:25:59;98403.66;;;19.31;53.30
62789;BME280;66401;42.016;21.454;2023-07-28T06:28:24;98395.91;;;19.46;52.84
62789;BME280;66401;42.016;21.454;2023-07-28T06:30:56;98398.81;;;19.66;53.40
62789;BME280;66401;42.016;21.454;2023-07-28T06:33:23;98396.16;;;19.66;55.37
62789;BME280;66401;42.016;21.454;2023-07-28T06:35:48;98396.78;;;19.73;53.14
62789;BME280;66401;42.016;21.454;2023-07-28T06:38:14;98383.25;;;19.92;52.79
62789;BME280;66401;42.016;21.454;2023-07-28T06:40:39;98369.63;;;19.56;52.55
62789;BME280;66401;42.016;21.454;2023-07-28T06:43:05;98381.44;;;19.70;52.11
62789;BME280;66401;42.016;21.454;2023-07-28T06:45:32;98380.69;;;19.53;51.99
62789;BME280;66401;42.016;21.454;2023-07-28T06:47:58;98387.91;;;19.85;52.62
62789;BME280;66401;42.016;21.454;2023-07-28T06:50:23;98385.03;;;19.86;51.43
62789;BME280;66401;42.016;21.454;2023-07-28T06:52:49;98381.38;;;19.65;51.92
62789;BME280;66401;42.016;21.454;2023-07-28T06:55:16;98380.38;;;19.50;53.29
62789;BME280;66401;42.016;21.454;2023-07-28T06:57:42;98386.16;;;19.68;52.57
62789;BME280;66401;42.016;21.454;2023-07-28T07:00:08;98394.00;;;19.85;52.65
62789;BME280;66401;42.016;21.454;2023-07-28T07:02:36;98392.59;;;19.78;51.23
62789;BME280;66401;42.016;21.454;2023-07-28T07:05:02;98390.13;;;19.93;52.33
62789;BME280;66401;42.016;21.454;2023-07-28T07:07:28;98392.16;;;19.86;51.57
62789;BME280;66401;42.016;21.454;2023-07-28T07:09:53;98386.34;;;20.11;50.49
62789;BME280;66401;42.016;21.454;2023-07-28T07:12:19;98387.22;;;20.21;53.11
62789;BME280;66401;42.016;21.454;2023-07-28T07:14:46;98373.94;;;20.43;50.76
62789;BME280;66401;42.016;21.454;2023-07-28T07:17:12;98387.66;;;20.72;50.65
62789;BME280;66401;42.016;21.454;2023-07-28T07:19:37;98392.13;;;20.67;49.33
62789;BME280;66401;42.016;21.454;2023-07-28T07:22:03;98386.44;;;20.48;49.77
62789;BME280;66401;42.016;21.454;2023-07-28T07:24:29;98391.88;;;20.73;50.68
62789;BME280;66401;42.016;21.454;2023-07-28T07:27:16;98386.25;;;21.02;50.75
62789;BME280;66401;42.016;21.454;2023-07-28T07:29:42;98392.41;;;21.12;48.10
62789;BME280;66401;42.016;21.454;2023-07-28T07:32:07;98382.19;;;21.26;49.20
62789;BME280;66401;42.016;21.454;2023-07-28T07:34:35;98390.19;;;21.41;48.61
62789;BME280;66401;42.016;21.454;2023-07-28T07:37:02;98378.56;;;21.48;47.97
62789;BME280;66401;42.016;21.454;2023-07-28T07:39:28;98383.28;;;21.35;46.99
62789;BME280;66401;42.016;21.454;2023-07-28T07:41:54;98378.25;;;21.34;46.82
62789;BME280;66401;42.016;21.454;2023-07-28T07:44:19;98360.63;;;21.12;48.82
62789;BME280;66401;42.016;21.454;2023-07-28T07:46:45;98377.56;;;21.64;49.86
62789;BME280;66401;42.016;21.454;2023-07-28T07:49:11;98374.94;;;21.79;47.18
62789;BME280;66401;42.016;21.454;2023-07-28T07:51:36;98360.50;;;21.34;45.98
62789;BME280;66401;42.016;21.454;2023-07-28T07:54:02;98354.69;;;21.37;44.78
62789;BME280;66401;42.016;21.454;2023-07-28T07:56:27;98359.53;;;21.71;47.75
62789;BME280;66401;42.016;21.454;2023-07-28T07:58:53;98362.78;;;21.83;46.34
62789;BME280;66401;42.016;21.454;2023-07-28T08:01:18;98344.72;;;21.90;45.33
62789;BME280;66401;42.016;21.454;2023-07-28T08:03:44;98332.56;;;21.99;45.74
62789;BME280;66401;42.016;21.454;2023-07-28T08:06:09;98334.47;;;22.24;48.15
62789;BME280;66401;42.016;21.454;2023-07-28T08:08:40;98336.59;;;22.33;44.30
62789;BME280;66401;42.016;21.454;2023-07-28T08:11:06;98323.03;;;22.04;43.90
62789;BME280;66401;42.016;21.454;2023-07-28T08:13:33;98327.56;;;22.13;44.45
62789;BME280;66401;42.016;21.454;2023-07-28T08:15:58;98333.41;;;22.41;44.35
62789;BME280;66401;42.016;21.454;2023-07-28T08:18:24;98333.66;;;22.34;41.94
62789;BME280;66401;42.016;21.454;2023-07-28T08:20:49;98317.75;;;22.24;42.66
62789;BME280;66401;42.016;21.454;2023-07-28T08:23:15;98328.88;;;22.46;42.64
62789;BME280;66401;42.016;21.454;2023-07-28T08:25:40;98321.97;;;22.55;43.40
62789;BME280;66401;42.016;21.454;2023-07-28T08:28:06;98319.28;;;22.86;43.95
62789;BME280;66401;42.016;21.454;2023-07-28T08:30:32;98321.88;;;23.01;41.92
62789;BME280;66401;42.016;21.454;2023-07-28T08:32:58;98319.78;;;22.93;41.14
62789;BME280;66401;42.016;21.454;2023-07-28T08:35:23;98317.66;;;22.95;42.44
62789;BME280;66401;42.016;21.454;2023-07-28T08:37:49;98304.69;;;22.68;41.52
62789;BME280;66401;42.016;21.454;2023-07-28T08:40:14;98311.84;;;22.68;41.90
62789;BME280;66401;42.016;21.454;2023-07-28T08:42:40;98319.78;;;22.83;41.64
62789;BME280;66401;42.016;21.454;2023-07-28T08:45:07;98325.16;;;22.63;42.53
62789;BME280;66401;42.016;21.454;2023-07-28T08:47:36;98317.41;;;22.92;43.54
62789;BME280;66401;42.016;21.454;2023-07-28T08:50:03;98307.56;;;22.82;41.42
62789;BME280;66401;42.016;21.454;2023-07-28T08:52:28;98299.53;;;23.18;41.35
62789;BME280;66401;42.016;21.454;2023-07-28T08:54:54;98300.75;;;23.35;43.14
62789;BME280;66401;42.016;21.454;2023-07-28T08:57:19;98301.00;;;23.39;40.24
62789;BME280;66401;42.016;21.454;2023-07-28T08:59:46;98291.56;;;23.18;41.09
62789;BME280;66401;42.016;21.454;2023-07-28T09:02:19;98293.84;;;23.34;40.82
62789;BME280;66401;42.016;21.454;2023-07-28T09:04:48;98293.59;;;23.31;40.45
62789;BME280;66401;42.016;21.454;2023-07-28T09:07:14;98296.94;;;23.57;41.57
62789;BME280;66401;42.016;21.454;2023-07-28T09:09:40;98292.47;;;23.42;41.59
62789;BME280;66401;42.016;21.454;2023-07-28T09:12:07;98290.53;;;23.58;40.94
62789;BME280;66401;42.016;21.454;2023-07-28T09:14:36;98275.78;;;23.81;40.93
62789;BME280;66401;42.016;21.454;2023-07-28T09:17:12;98270.88;;;23.59;39.86
62789;BME280;66401;42.016;21.454;2023-07-28T09:19:55;98268.88;;;23.80;40.31
62789;BME280;66401;42.016;21.454;2023-07-28T09:22:22;98267.00;;;24.14;41.26
62789;BME280;66401;42.016;21.454;2023-07-28T09:24:50;98264.84;;;24.16;39.98
62789;BME280;66401;42.016;21.454;2023-07-28T09:27:26;98256.31;;;24.19;39.98
62789;BME280;66401;42.016;21.454;2023-07-28T09:29:55;98263.38;;;24.05;39.43
62789;BME280;66401;42.016;21.454;2023-07-28T09:32:29;98261.63;;;24.19;39.92
62789;BME280;66401;42.016;21.454;2023-07-28T09:38:14;98256.72;;;24.84;40.70
62789;BME280;66401;42.016;21.454;2023-07-28T09:40:40;98255.94;;;25.46;41.76
62789;BME280;66401;42.016;21.454;2023-07-28T09:43:09;98241.81;;;25.64;42.46
62789;BME280;66401;42.016;21.454;2023-07-28T09:45:35;98220.56;;;25.59;41.26
62789;BME280;66401;42.016;21.454;2023-07-28T09:48:02;98219.28;;;25.37;37.61
62789;BME280;66401;42.016;21.454;2023-07-28T09:50:29;98238.16;;;25.60;38.51
62789;BME280;66401;42.016;21.454;2023-07-28T09:53:00;98222.53;;;25.34;37.43
62789;BME280;66401;42.016;21.454;2023-07-28T09:55:26;98227.41;;;25.65;40.93
62789;BME280;66401;42.016;21.454;2023-07-28T09:57:55;98205.66;;;25.58;36.68
62789;BME280;66401;42.016;21.454;2023-07-28T10:00:22;98228.00;;;25.62;37.23
62789;BME280;66401;42.016;21.454;2023-07-28T10:02:48;98228.19;;;25.65;37.25
62789;BME280;66401;42.016;21.454;2023-07-28T10:05:14;98205.00;;;25.47;37.76
62789;BME280;66401;42.016;21.454;2023-07-28T10:07:43;98221.94;;;25.37;38.29
62789;BME280;66401;42.016;21.454;2023-07-28T10:10:11;98213.94;;;25.37;37.39
62789;BME280;66401;42.016;21.454;2023-07-28T10:12:47;98183.13;;;25.31;38.94
62789;BME280;66401;42.016;21.454;2023-07-28T10:15:15;98206.66;;;25.62;37.08
62789;BME280;66401;42.016;21.454;2023-07-28T10:17:44;98189.84;;;25.61;37.82
62789;BME280;66401;42.016;21.454;2023-07-28T10:23:14;98189.78;;;25.48;38.17
62789;BME280;66401;42.016;21.454;2023-07-28T10:25:41;98172.72;;;25.49;37.32
62789;BME280;66401;42.016;21.454;2023-07-28T10:28:25;98183.50;;;25.76;38.13
62789;BME280;66401;42.016;21.454;2023-07-28T10:30:54;98177.84;;;25.96;36.34
62789;BME280;66401;42.016;21.454;2023-07-28T10:33:31;98187.47;;;26.25;36.61
62789;BME280;66401;42.016;21.454;2023-07-28T10:36:12;98121.09;;;25.91;35.39
62789;BME280;66401;42.016;21.454;2023-07-28T10:38:39;98179.94;;;26.82;36.13
62789;BME280;66401;42.016;21.454;2023-07-28T10:41:06;98173.00;;;26.81;34.88
62789;BME280;66401;42.016;21.454;2023-07-28T10:43:33;98161.00;;;27.06;37.72
62789;BME280;66401;42.016;21.454;2023-07-28T10:45:59;98168.97;;;27.20;36.95
62789;BME280;66401;42.016;21.454;2023-07-28T10:48:28;98151.72;;;26.90;33.98
62789;BME280;66401;42.016;21.454;2023-07-28T10:50:54;98170.97;;;27.00;33.46
62789;BME280;66401;42.016;21.454;2023-07-28T10:53:19;98151.22;;;26.88;34.09
62789;BME280;66401;42.016;21.454;2023-07-28T10:55:45;98145.09;;;26.87;35.51
62789;BME280;66401;42.016;21.454;2023-07-28T10:58:10;98154.03;;;26.69;34.12
62789;BME280;66401;42.016;21.454;2023-07-28T11:00:38;98141.38;;;26.61;35.02
62789;BME280;66401;42.016;21.454;2023-07-28T11:03:03;98131.38;;;26.52;34.54
62789;BME280;66401;42.016;21.454;2023-07-28T11:05:30;98151.66;;;26.53;35.01
62789;BME280;66401;42.016;21.454;2023-07-28T11:07:57;98126.16;;;26.47;33.43
62789;BME280;66401;42.016;21.454;2023-07-28T11:10:24;98121.19;;;26.68;34.98
62789;BME280;66401;42.016;21.454;2023-07-28T11:12:52;98126.09;;;27.02;34.58
62789;BME280;66401;42.016;21.454;2023-07-28T11:15:19;98123.19;;;26.99;35.01
62789;BME280;66401;42.016;21.454;2023-07-28T11:17:48;98112.34;;;27.18;36.03
62789;BME280;66401;42.016;21.454;2023-07-28T11:22:46;98121.53;;;26.89;35.19
62789;BME280;66401;42.016;21.454;2023-07-28T11:25:12;98110.44;;;26.96;35.16
62789;BME280;66401;42.016;21.454;2023-07-28T11:27:39;98095.59;;;27.03;35.59
62789;BME280;66401;42.016;21.454;2023-07-28T11:30:07;98111.72;;;27.21;35.17
62789;BME280;66401;42.016;21.454;2023-07-28T11:32:35;98089.75;;;27.24;34.82
62789;BME280;66401;42.016;21.454;2023-07-28T11:35:08;98086.94;;;27.29;34.37
62789;BME280;66401;42.016;21.454;2023-07-28T11:37:34;98105.41;;;27.39;34.30
62789;BME280;66401;42.016;21.454;2023-07-28T11:40:05;98103.09;;;27.46;34.43
62789;BME280;66401;42.016;21.454;2023-07-28T11:42:41;98091.91;;;27.44;34.63
62789;BME280;66401;42.016;21.454;2023-07-28T11:45:12;98092.34;;;27.91;34.67
62789;BME280;66401;42.016;21.454;2023-07-28T11:47:38;98085.47;;;27.45;33.09
62789;BME280;66401;42.016;21.454;2023-07-28T11:50:04;98064.91;;;27.54;32.13
62789;BME280;66401;42.016;21.454;2023-07-28T11:55:21;98064.56;;;27.78;33.40
62789;BME280;66401;42.016;21.454;2023-07-28T11:57:48;98069.00;;;27.83;33.73
62789;BME280;66401;42.016;21.454;2023-07-28T12:00:33;98065.16;;;27.66;32.59
62789;BME280;66401;42.016;21.454;2023-07-28T12:03:03;98065.94;;;27.67;32.11
62789;BME280;66401;42.016;21.454;2023-07-28T12:05:29;98052.25;;;27.69;33.56
62789;BME280;66401;42.016;21.454;2023-07-28T12:07:54;98068.94;;;27.65;33.40
62789;BME280;66401;42.016;21.454;2023-07-28T12:10:20;98057.19;;;27.53;32.70
62789;BME280;66401;42.016;21.454;2023-07-28T12:12:46;98038.63;;;27.56;32.53
62789;BME280;66401;42.016;21.454;2023-07-28T12:15:24;98043.44;;;27.68;32.55
62789;BME280;66401;42.016;21.454;2023-07-28T12:18:15;98039.78;;;27.64;30.92
62789;BME280;66401;42.016;21.454;2023-07-28T12:20:46;98047.25;;;27.76;31.25
62789;BME280;66401;42.016;21.454;2023-07-28T12:23:17;98035.00;;;27.83;31.03
62789;BME280;66401;42.016;21.454;2023-07-28T12:25:43;98033.94;;;27.93;31.03
62789;BME280;66401;42.016;21.454;2023-07-28T12:28:11;98010.78;;;27.97;32.55
62789;BME280;66401;42.016;21.454;2023-07-28T12:30:37;98023.56;;;28.00;30.86
62789;BME280;66401;42.016;21.454;2023-07-28T12:33:04;98026.44;;;28.21;30.73
62789;BME280;66401;42.016;21.454;2023-07-28T12:35:31;98013.81;;;28.13;30.50
62789;BME280;66401;42.016;21.454;2023-07-28T12:38:03;98020.09;;;28.00;29.83
62789;BME280;66401;42.016;21.454;2023-07-28T12:40:33;98009.50;;;27.86;30.88
62789;BME280;66401;42.016;21.454;2023-07-28T12:43:02;98012.81;;;27.83;30.37
62789;BME280;66401;42.016;21.454;2023-07-28T12:45:28;97993.00;;;27.92;30.97
62789;BME280;66401;42.016;21.454;2023-07-28T12:47:54;98000.59;;;28.25;32.73
62789;BME280;66401;42.016;21.454;2023-07-28T12:50:22;98012.00;;;28.48;32.16
62789;BME280;66401;42.016;21.454;2023-07-28T12:52:48;98000.50;;;28.65;30.95
62789;BME280;66401;42.016;21.454;2023-07-28T12:55:15;97996.09;;;28.60;30.37
62789;BME280;66401;42.016;21.454;2023-07-28T12:57:40;97993.09;;;28.70;30.40
62789;BME280;66401;42.016;21.454;2023-07-28T13:00:07;97977.47;;;28.72;31.36
62789;BME280;66401;42.016;21.454;2023-07-28T13:02:39;97973.22;;;28.71;29.83